createdAt,value
2017-11-07T00:02:20.474Z,2.50
2017-11-07T00:04:49.493Z,2.40
2017-11-07T00:07:18.500Z,2.40
2017-11-07T00:09:47.586Z,2.40
2017-11-07T00:12:15.822Z,2.40
2017-11-07T00:14:44.144Z,2.50
2017-11-07T00:17:12.392Z,2.50
2017-11-07T00:19:41.393Z,2.70
2017-11-07T00:22:10.426Z,2.70
2017-11-07T00:24:38.664Z,2.70
2017-11-07T00:27:07.673Z,2.90
2017-11-07T00:29:35.926Z,2.80
2017-11-07T00:32:04.933Z,2.80
2017-11-07T00:34:33.186Z,2.90
2017-11-07T00:37:02.198Z,2.90
2017-11-07T00:39:31.201Z,2.90
2017-11-07T00:41:59.439Z,2.90
2017-11-07T00:44:27.696Z,3.00
2017-11-07T00:46:55.940Z,3.10
2017-11-07T00:49:24.182Z,3.10
2017-11-07T00:51:53.209Z,3.20
2017-11-07T00:54:21.429Z,3.20
2017-11-07T00:56:49.685Z,3.20
2017-11-07T00:59:17.916Z,3.20
2017-11-07T01:01:46.165Z,3.20
2017-11-07T01:04:14.403Z,3.30
2017-11-07T01:06:42.660Z,3.30
2017-11-07T01:09:10.897Z,3.30
2017-11-07T01:11:39.123Z,3.30
2017-11-07T01:14:07.366Z,3.40
2017-11-07T01:16:35.609Z,3.40
2017-11-07T01:19:03.862Z,3.40
2017-11-07T01:21:32.092Z,3.40
2017-11-07T01:24:00.345Z,3.30
2017-11-07T01:26:29.346Z,3.30
2017-11-07T01:28:58.354Z,3.20
2017-11-07T01:31:26.600Z,3.20
2017-11-07T01:33:54.841Z,3.20
2017-11-07T01:36:23.073Z,3.20
2017-11-07T01:38:51.336Z,3.30
2017-11-07T01:41:20.341Z,3.40
2017-11-07T01:43:48.578Z,3.40
2017-11-07T01:46:16.830Z,3.50
2017-11-07T01:48:45.065Z,3.50
2017-11-07T01:51:13.321Z,3.60
2017-11-07T01:53:41.558Z,3.60
2017-11-07T01:56:09.797Z,3.60
2017-11-07T01:58:38.041Z,3.60
2017-11-07T02:01:06.286Z,3.60
2017-11-07T02:03:34.530Z,3.60
2017-11-07T02:06:02.777Z,3.60
2017-11-07T02:08:31.785Z,3.50
2017-11-07T02:11:00.027Z,3.50
2017-11-07T02:13:28.274Z,3.50
2017-11-07T02:15:56.506Z,3.60
2017-11-07T02:18:25.521Z,3.60
2017-11-07T02:20:53.758Z,3.60
2017-11-07T02:23:22.174Z,3.70
2017-11-07T02:25:50.410Z,3.70
2017-11-07T02:28:18.653Z,3.70
2017-11-07T02:30:46.891Z,3.70
2017-11-07T02:33:15.131Z,3.80
2017-11-07T02:35:43.372Z,3.80
2017-11-07T02:38:11.630Z,3.80
2017-11-07T02:40:39.869Z,3.80
2017-11-07T02:43:08.908Z,3.80
2017-11-07T02:45:37.153Z,3.80
2017-11-07T02:48:06.163Z,3.70
2017-11-07T02:50:34.419Z,3.70
2017-11-07T02:53:03.431Z,3.80
2017-11-07T02:55:31.667Z,3.80
2017-11-07T02:57:59.912Z,3.90
2017-11-07T03:00:28.160Z,3.90
2017-11-07T03:02:56.405Z,4.00
2017-11-07T03:05:25.421Z,4.10
2017-11-07T03:07:53.663Z,4.10
2017-11-07T03:10:22.678Z,4.30
2017-11-07T03:12:50.918Z,4.20
2017-11-07T03:15:19.179Z,4.30
2017-11-07T03:17:47.414Z,4.40
2017-11-07T03:20:15.678Z,4.40
2017-11-07T03:22:43.923Z,4.40
2017-11-07T03:25:12.165Z,4.50
2017-11-07T03:27:40.415Z,4.50
2017-11-07T03:30:08.656Z,4.50
2017-11-07T03:32:37.671Z,4.50
2017-11-07T03:35:06.679Z,4.50
2017-11-07T03:37:34.922Z,4.50
2017-11-07T03:40:03.924Z,4.60
2017-11-07T03:42:32.935Z,4.50
2017-11-07T03:45:01.170Z,4.50
2017-11-07T03:47:29.413Z,4.50
2017-11-07T03:49:57.657Z,4.50
2017-11-07T03:52:25.918Z,4.50
2017-11-07T03:54:54.924Z,4.50
2017-11-07T03:57:23.162Z,4.50
2017-11-07T03:59:51.408Z,4.40
2017-11-07T04:02:19.643Z,4.40
2017-11-07T04:04:48.663Z,4.40
2017-11-07T04:07:16.906Z,4.30
2017-11-07T04:09:45.917Z,4.30
2017-11-07T04:12:14.157Z,4.20
2017-11-07T04:14:42.408Z,4.30
2017-11-07T04:17:10.644Z,4.30
2017-11-07T04:19:38.890Z,4.30
2017-11-07T04:22:07.894Z,4.30
2017-11-07T04:24:36.901Z,4.40
2017-11-07T04:27:05.175Z,4.30
2017-11-07T04:29:33.418Z,4.40
2017-11-07T04:32:02.429Z,4.40
2017-11-07T04:34:31.620Z,4.40
2017-11-07T04:37:00.638Z,4.50
2017-11-07T04:39:28.885Z,4.50
2017-11-07T04:41:57.916Z,4.50
2017-11-07T04:44:26.158Z,4.50
2017-11-07T04:46:55.162Z,4.60
2017-11-07T04:49:23.413Z,4.60
2017-11-07T04:51:51.658Z,4.60
2017-11-07T04:54:19.906Z,4.60
2017-11-07T04:56:48.170Z,4.60
2017-11-07T04:59:17.172Z,4.60
2017-11-07T05:01:45.410Z,4.60
2017-11-07T05:04:14.433Z,4.70
2017-11-07T05:06:42.677Z,4.70
2017-11-07T05:09:11.697Z,4.70
2017-11-07T05:11:39.938Z,4.70
2017-11-07T05:14:08.211Z,4.70
2017-11-07T05:16:36.451Z,4.70
2017-11-07T05:19:04.694Z,4.70
2017-11-07T05:21:32.942Z,4.70
2017-11-07T05:24:01.182Z,4.80
2017-11-07T05:26:29.438Z,4.80
2017-11-07T05:28:57.677Z,4.80
2017-11-07T05:31:26.797Z,4.70
2017-11-07T05:33:55.044Z,4.80
2017-11-07T05:36:23.293Z,4.80
2017-11-07T05:38:51.545Z,4.80
2017-11-07T05:41:19.809Z,4.80
2017-11-07T05:43:48.049Z,4.80
2017-11-07T05:46:17.050Z,4.80
2017-11-07T05:48:46.063Z,4.80
2017-11-07T05:51:14.305Z,4.90
2017-11-07T05:53:43.326Z,4.90
2017-11-07T05:56:11.570Z,4.80
2017-11-07T05:58:39.822Z,4.90
2017-11-07T06:01:08.067Z,4.90
2017-11-07T06:03:36.316Z,4.90
2017-11-07T06:06:05.317Z,4.90
2017-11-07T06:08:33.570Z,4.90
2017-11-07T06:11:01.813Z,5.00
2017-11-07T06:13:30.079Z,5.00
2017-11-07T06:15:58.328Z,5.00
2017-11-07T06:18:26.570Z,5.00
2017-11-07T06:20:54.813Z,5.00
2017-11-07T06:23:23.079Z,5.00
2017-11-07T06:25:51.310Z,5.10
2017-11-07T06:28:20.315Z,5.10
2017-11-07T06:30:48.559Z,5.10
2017-11-07T06:33:16.799Z,5.10
2017-11-07T06:35:45.042Z,5.20
2017-11-07T06:38:13.278Z,5.20
2017-11-07T06:40:41.530Z,5.20
2017-11-07T06:43:09.769Z,5.20
2017-11-07T06:45:38.025Z,5.30
2017-11-07T06:48:07.037Z,5.30
2017-11-07T06:50:35.293Z,5.30
2017-11-07T06:53:04.300Z,5.30
2017-11-07T06:55:32.559Z,5.30
2017-11-07T06:58:01.562Z,5.40
2017-11-07T07:00:30.570Z,5.40
2017-11-07T07:02:58.819Z,5.30
2017-11-07T07:05:27.828Z,5.40
2017-11-07T07:07:56.082Z,5.40
2017-11-07T07:10:24.327Z,5.40
2017-11-07T07:12:52.571Z,5.40
2017-11-07T07:15:20.814Z,5.40
2017-11-07T07:17:49.825Z,5.50
2017-11-07T07:20:18.066Z,5.50
2017-11-07T07:22:46.318Z,5.50
2017-11-07T07:25:14.568Z,5.60
2017-11-07T07:27:42.832Z,5.50
2017-11-07T07:30:11.074Z,5.60
2017-11-07T07:32:39.322Z,5.60
2017-11-07T07:35:07.570Z,5.60
2017-11-07T07:37:35.813Z,5.60
2017-11-07T07:40:04.827Z,5.60
2017-11-07T07:42:33.070Z,5.60
2017-11-07T07:45:02.078Z,5.70
2017-11-07T07:47:31.087Z,5.70
2017-11-07T07:49:59.336Z,5.70
2017-11-07T07:52:27.572Z,5.70
2017-11-07T07:54:55.826Z,5.80
2017-11-07T07:57:24.058Z,5.90
2017-11-07T07:59:53.070Z,5.90
2017-11-07T08:02:21.309Z,5.90
2017-11-07T08:04:49.554Z,6.00
2017-11-07T08:07:17.799Z,6.00
2017-11-07T08:09:46.054Z,6.10
2017-11-07T08:12:14.291Z,6.20
2017-11-07T08:14:42.541Z,6.20
2017-11-07T08:17:10.781Z,6.20
2017-11-07T08:19:39.018Z,6.10
2017-11-07T08:22:07.250Z,6.20
2017-11-07T08:24:35.494Z,6.20
2017-11-07T08:27:03.730Z,6.30
2017-11-07T08:29:31.977Z,6.40
2017-11-07T08:32:00.217Z,6.40
2017-11-07T08:34:28.476Z,6.50
2017-11-07T08:36:56.726Z,6.40
2017-11-07T08:39:24.958Z,6.40
2017-11-07T08:41:53.974Z,6.40
2017-11-07T08:44:22.218Z,6.40
2017-11-07T08:46:50.466Z,6.40
2017-11-07T08:49:19.475Z,6.40
2017-11-07T08:51:47.719Z,6.40
2017-11-07T08:54:15.966Z,6.50
2017-11-07T08:56:44.211Z,6.50
2017-11-07T08:59:13.222Z,6.50
2017-11-07T09:01:42.238Z,6.60
2017-11-07T09:04:10.468Z,6.60
2017-11-07T09:06:39.498Z,6.60
2017-11-07T09:09:07.737Z,6.60
2017-11-07T09:11:35.984Z,6.50
2017-11-07T09:14:04.224Z,6.70
2017-11-07T09:16:32.470Z,6.80
2017-11-07T09:19:01.490Z,6.80
2017-11-07T09:21:29.738Z,6.80
2017-11-07T09:23:58.754Z,6.90
2017-11-07T09:26:26.999Z,6.90
2017-11-07T09:28:55.250Z,6.80
2017-11-07T09:31:23.499Z,6.90
2017-11-07T09:33:51.751Z,6.90
2017-11-07T09:36:19.994Z,6.90
2017-11-07T09:38:48.267Z,7.00
2017-11-07T09:41:16.501Z,6.90
2017-11-07T09:43:44.747Z,6.80
2017-11-07T09:46:13.759Z,6.80
2017-11-07T09:48:42.002Z,6.80
2017-11-07T09:51:11.026Z,6.90
2017-11-07T09:53:39.279Z,6.80
2017-11-07T09:56:08.289Z,7.00
2017-11-07T09:58:36.534Z,7.00
2017-11-07T10:01:04.787Z,6.90
2017-11-07T10:03:33.034Z,6.90
2017-11-07T10:06:01.282Z,6.90
2017-11-07T10:08:29.526Z,6.90
2017-11-07T10:10:57.773Z,6.90
2017-11-07T10:13:26.781Z,7.00
2017-11-07T10:15:55.026Z,7.00
2017-11-07T10:18:23.272Z,7.00
2017-11-07T10:20:52.288Z,7.00
2017-11-07T10:23:20.519Z,7.00
2017-11-07T10:25:48.766Z,7.00
2017-11-07T10:28:17.015Z,7.10
2017-11-07T10:30:45.266Z,7.20
2017-11-07T10:33:14.278Z,7.30
2017-11-07T10:35:42.529Z,7.30
2017-11-07T10:38:11.533Z,7.30
2017-11-07T10:40:39.789Z,7.30
2017-11-07T10:43:08.797Z,7.40
2017-11-07T10:45:37.053Z,7.30
2017-11-07T10:48:05.294Z,7.30
2017-11-07T10:50:33.547Z,7.30
2017-11-07T10:53:01.933Z,7.30
2017-11-07T10:55:30.200Z,7.40
2017-11-07T10:57:58.442Z,7.40
2017-11-07T11:00:27.461Z,7.60
2017-11-07T11:02:55.703Z,7.50
2017-11-07T11:05:24.721Z,7.70
2017-11-07T11:07:52.958Z,7.70
2017-11-07T11:10:21.201Z,7.80
2017-11-07T11:12:49.449Z,7.80
2017-11-07T11:15:17.692Z,7.90
2017-11-07T11:17:45.937Z,7.90
2017-11-07T11:20:14.186Z,7.90
2017-11-07T11:22:42.434Z,7.90
2017-11-07T11:25:11.439Z,7.80
2017-11-07T11:27:39.689Z,7.80
2017-11-07T11:30:07.934Z,7.80
2017-11-07T11:32:36.175Z,7.80
2017-11-07T11:35:04.428Z,7.80
2017-11-07T11:37:33.437Z,7.80
2017-11-07T11:40:01.682Z,7.80
2017-11-07T11:42:30.689Z,7.80
2017-11-07T11:44:59.715Z,7.80
2017-11-07T11:47:27.953Z,7.80
2017-11-07T11:49:56.967Z,7.80
2017-11-07T11:52:25.214Z,7.80
2017-11-07T11:54:54.234Z,7.80
2017-11-07T11:57:22.482Z,7.80
2017-11-07T11:59:51.500Z,7.70
2017-11-07T12:02:19.748Z,7.70
2017-11-07T12:04:47.979Z,7.70
2017-11-07T12:07:16.226Z,7.80
2017-11-07T12:09:44.476Z,7.80
2017-11-07T12:12:13.498Z,7.90
2017-11-07T12:14:41.741Z,7.90
2017-11-07T12:17:10.753Z,7.90
2017-11-07T12:19:39.007Z,7.90
2017-11-07T12:22:07.256Z,7.90
2017-11-07T12:24:35.587Z,7.90
2017-11-07T12:27:03.839Z,7.90
2017-11-07T12:29:32.856Z,7.90
2017-11-07T12:32:01.105Z,7.90
2017-11-07T12:34:29.337Z,7.80
2017-11-07T12:36:57.646Z,7.80
2017-11-07T12:39:25.895Z,7.90
2017-11-07T12:41:54.152Z,7.90
2017-11-07T12:44:22.382Z,7.80
2017-11-07T12:46:51.412Z,7.80
2017-11-07T12:49:19.677Z,7.80
2017-11-07T12:51:59.766Z,7.90
2017-11-07T12:54:28.018Z,7.90
2017-11-07T12:56:56.272Z,7.90
2017-11-07T12:59:25.283Z,7.80
2017-11-07T13:01:53.541Z,7.80
2017-11-07T13:04:22.552Z,7.80
2017-11-07T13:06:50.802Z,7.80
2017-11-07T13:09:19.813Z,7.80
2017-11-07T13:11:48.064Z,7.80
2017-11-07T13:14:17.066Z,8.00
2017-11-07T13:16:46.089Z,8.00
2017-11-07T13:19:14.334Z,8.00
2017-11-07T13:21:43.355Z,8.10
2017-11-07T13:24:11.606Z,8.10
2017-11-07T13:26:40.610Z,8.20
2017-11-07T13:29:08.872Z,8.10
2017-11-07T13:31:37.870Z,8.20
2017-11-07T13:34:06.887Z,8.20
2017-11-07T13:36:35.130Z,8.20
2017-11-07T13:39:04.138Z,8.20
2017-11-07T13:41:32.386Z,8.20
2017-11-07T13:44:00.638Z,8.20
2017-11-07T13:46:28.868Z,8.20
2017-11-07T13:48:57.119Z,8.30
2017-11-07T13:51:26.129Z,8.30
2017-11-07T13:53:54.386Z,8.20
2017-11-07T13:56:23.398Z,8.20
2017-11-07T13:58:51.647Z,8.20
2017-11-07T14:01:19.899Z,8.20
2017-11-07T14:03:48.145Z,8.20
2017-11-07T14:06:16.386Z,8.20
2017-11-07T14:08:45.395Z,8.20
2017-11-07T14:11:13.642Z,8.20
2017-11-07T14:13:41.883Z,8.20
2017-11-07T14:16:10.134Z,8.20
2017-11-07T14:18:38.383Z,8.10
2017-11-07T14:21:07.410Z,8.00
2017-11-07T14:23:35.653Z,8.10
2017-11-07T14:26:04.663Z,8.00
2017-11-07T14:28:32.910Z,8.00
2017-11-07T14:31:01.945Z,8.00
2017-11-07T14:33:30.182Z,8.00
2017-11-07T14:35:59.186Z,8.10
2017-11-07T14:38:28.202Z,8.10
2017-11-07T14:40:56.446Z,8.10
2017-11-07T14:43:25.475Z,8.00
2017-11-07T14:45:53.707Z,8.00
2017-11-07T14:48:22.729Z,8.00
2017-11-07T14:50:50.974Z,8.00
2017-11-07T14:53:19.991Z,8.00
2017-11-07T14:55:48.242Z,8.00
2017-11-07T14:58:17.251Z,8.00
2017-11-07T15:00:46.262Z,8.00
2017-11-07T15:03:14.511Z,8.00
2017-11-07T15:05:43.518Z,7.90
2017-11-07T15:08:11.770Z,7.90
2017-11-07T15:10:40.779Z,7.90
2017-11-07T15:13:09.794Z,7.80
2017-11-07T15:15:38.046Z,7.80
2017-11-07T15:18:07.073Z,7.80
2017-11-07T15:20:35.309Z,7.80
2017-11-07T15:23:04.329Z,7.80
2017-11-07T15:25:32.576Z,7.70
2017-11-07T15:28:01.585Z,7.70
2017-11-07T15:30:29.827Z,7.70
2017-11-07T15:32:58.090Z,7.70
2017-11-07T15:35:26.338Z,7.70
2017-11-07T15:37:54.591Z,7.70
2017-11-07T15:40:22.844Z,7.70
2017-11-07T15:42:51.862Z,7.70
2017-11-07T15:45:20.124Z,7.70
2017-11-07T15:47:49.126Z,7.70
2017-11-07T15:50:17.366Z,7.60
2017-11-07T15:52:45.618Z,7.60
2017-11-07T15:55:13.871Z,7.60
2017-11-07T15:57:42.124Z,7.70
2017-11-07T16:00:11.144Z,7.70
2017-11-07T16:02:40.220Z,7.70
2017-11-07T16:05:08.465Z,7.60
2017-11-07T16:07:36.715Z,7.60
2017-11-07T16:10:04.964Z,7.60
2017-11-07T16:12:33.213Z,7.60
2017-11-07T16:15:01.464Z,7.70
2017-11-07T16:17:29.727Z,7.70
2017-11-07T16:19:57.954Z,7.60
2017-11-07T16:22:26.210Z,7.60
2017-11-07T16:24:55.222Z,7.60
2017-11-07T16:27:23.474Z,7.60
2017-11-07T16:29:52.487Z,7.60
2017-11-07T16:32:20.731Z,7.60
2017-11-07T16:34:49.742Z,7.60
2017-11-07T16:37:18.766Z,7.60
2017-11-07T16:39:48.563Z,7.60
2017-11-07T16:42:16.808Z,7.60
2017-11-07T16:44:45.821Z,7.60
2017-11-07T16:47:14.069Z,7.50
2017-11-07T16:49:42.307Z,7.60
2017-11-07T16:52:10.553Z,7.60
2017-11-07T16:54:38.796Z,7.60
2017-11-07T16:57:07.817Z,7.60
2017-11-07T16:59:36.062Z,7.50
2017-11-07T17:02:05.078Z,7.60
2017-11-07T17:04:33.345Z,7.50
2017-11-07T17:07:02.384Z,7.50
2017-11-07T17:09:30.643Z,7.50
2017-11-07T17:11:58.884Z,7.50
2017-11-07T17:14:27.905Z,7.50
2017-11-07T17:16:56.153Z,7.50
2017-11-07T17:19:25.162Z,7.50
2017-11-07T17:21:53.423Z,7.50
2017-11-07T17:24:22.428Z,7.50
2017-11-07T17:26:50.677Z,7.50
2017-11-07T17:29:19.698Z,7.40
2017-11-07T17:31:48.714Z,7.40
2017-11-07T17:34:16.959Z,7.40
2017-11-07T17:36:45.990Z,7.40
2017-11-07T17:39:14.238Z,7.40
2017-11-07T17:41:42.484Z,7.30
2017-11-07T17:44:10.741Z,7.40
2017-11-07T17:46:38.978Z,7.30
2017-11-07T17:49:07.221Z,7.30
2017-11-07T17:51:36.241Z,7.30
2017-11-07T17:54:04.488Z,7.30
2017-11-07T17:56:33.489Z,7.30
2017-11-07T17:59:02.506Z,7.20
2017-11-07T18:01:30.751Z,7.30
2017-11-07T18:03:59.772Z,7.30
2017-11-07T18:06:28.018Z,7.20
2017-11-07T18:08:57.034Z,7.30
2017-11-07T18:11:25.281Z,7.20
2017-11-07T18:13:53.529Z,7.20
2017-11-07T18:16:21.776Z,7.20
2017-11-07T18:18:50.019Z,7.20
2017-11-07T18:21:19.030Z,7.20
2017-11-07T18:23:47.283Z,7.20
2017-11-07T18:26:16.286Z,7.20
2017-11-07T18:28:44.538Z,7.20
2017-11-07T18:31:12.779Z,7.20
2017-11-07T18:33:41.034Z,7.20
2017-11-07T18:36:09.275Z,7.20
2017-11-07T18:38:38.286Z,7.10
2017-11-07T18:41:06.532Z,7.10
2017-11-07T18:43:34.790Z,7.10
2017-11-07T18:46:03.034Z,7.10
2017-11-07T18:48:31.278Z,7.00
2017-11-07T18:51:00.291Z,7.10
2017-11-07T18:53:28.541Z,7.00
2017-11-07T18:55:57.550Z,7.00
2017-11-07T18:58:26.563Z,7.00
2017-11-07T19:00:54.807Z,7.00
2017-11-07T19:03:23.818Z,7.00
2017-11-07T19:05:52.063Z,7.00
2017-11-07T19:08:20.307Z,7.00
2017-11-07T19:10:48.555Z,7.00
2017-11-07T19:13:16.803Z,7.00
2017-11-07T19:15:45.812Z,7.00
2017-11-07T19:18:14.064Z,7.00
2017-11-07T19:20:43.068Z,7.00
2017-11-07T19:23:12.083Z,7.00
2017-11-07T19:25:40.340Z,7.00
2017-11-07T19:28:09.339Z,7.10
2017-11-07T19:30:37.582Z,7.10
2017-11-07T19:33:05.835Z,7.10
2017-11-07T19:35:34.079Z,7.10
2017-11-07T19:38:02.333Z,7.10
2017-11-07T19:40:31.336Z,7.10
2017-11-07T19:42:59.581Z,7.00
2017-11-07T19:45:28.593Z,7.10
2017-11-07T19:47:57.607Z,7.10
2017-11-07T19:50:25.842Z,7.00
2017-11-07T19:52:54.865Z,7.10
2017-11-07T19:55:23.118Z,7.00
2017-11-07T19:57:52.119Z,7.10
2017-11-07T20:00:21.132Z,7.10
2017-11-07T20:02:49.383Z,7.10
2017-11-07T20:05:18.395Z,7.00
2017-11-07T20:07:46.655Z,7.00
2017-11-07T20:10:15.661Z,7.00
2017-11-07T20:12:43.921Z,7.00
2017-11-07T20:15:12.929Z,7.00
2017-11-07T20:17:41.204Z,7.00
2017-11-07T20:20:09.445Z,7.00
2017-11-07T20:22:37.723Z,7.00
2017-11-07T20:25:05.980Z,7.00
2017-11-07T20:27:34.218Z,7.00
2017-11-07T20:30:02.472Z,7.00
2017-11-07T20:32:30.721Z,7.00
2017-11-07T20:34:58.990Z,7.00
2017-11-07T20:37:27.233Z,7.00
2017-11-07T20:39:55.487Z,7.00
2017-11-07T20:42:23.739Z,7.00
2017-11-07T20:44:52.745Z,7.00
2017-11-07T20:47:20.989Z,7.00
2017-11-07T20:49:49.891Z,7.00
2017-11-07T20:52:18.899Z,7.00
2017-11-07T20:54:47.916Z,7.00
2017-11-07T20:57:16.154Z,7.00
2017-11-07T20:59:45.173Z,7.00
2017-11-07T21:02:13.422Z,7.00
2017-11-07T21:04:41.666Z,7.00
2017-11-07T21:07:09.916Z,7.00
2017-11-07T21:09:38.165Z,7.00
2017-11-07T21:12:06.402Z,7.00
2017-11-07T21:14:34.655Z,7.00
2017-11-07T21:17:02.901Z,7.00
2017-11-07T21:19:32.943Z,7.00
2017-11-07T21:22:01.189Z,7.00
2017-11-07T21:24:29.437Z,6.90
2017-11-07T21:26:58.457Z,6.90
2017-11-07T21:29:26.705Z,6.80
2017-11-07T21:31:55.717Z,6.90
2017-11-07T21:34:24.718Z,6.80
2017-11-07T21:36:52.962Z,6.80
2017-11-07T21:39:21.211Z,6.80
2017-11-07T21:41:49.458Z,6.90
2017-11-07T21:44:17.705Z,6.90
2017-11-07T21:46:46.714Z,6.90
2017-11-07T21:49:14.970Z,6.90
2017-11-07T21:51:43.982Z,6.90
2017-11-07T21:54:12.229Z,6.80
2017-11-07T21:56:41.244Z,6.80
2017-11-07T21:59:09.498Z,6.80
2017-11-07T22:01:37.736Z,6.80
2017-11-07T22:04:05.992Z,6.80
2017-11-07T22:06:34.250Z,6.80
2017-11-07T22:09:02.502Z,6.80
2017-11-07T22:11:31.515Z,6.80
2017-11-07T22:13:59.786Z,6.80
2017-11-07T22:16:28.799Z,6.80
2017-11-07T22:19:03.450Z,6.80
2017-11-07T22:21:31.693Z,6.80
2017-11-07T22:23:59.935Z,6.80
2017-11-07T22:26:28.181Z,6.80
2017-11-07T22:28:57.195Z,6.80
2017-11-07T22:31:28.268Z,6.80
2017-11-07T22:33:56.506Z,6.80
2017-11-07T22:36:24.760Z,6.80
2017-11-07T22:38:56.966Z,6.80
2017-11-07T22:41:26.066Z,6.80
2017-11-07T22:43:55.902Z,6.80
2017-11-07T22:46:24.208Z,6.70
2017-11-07T22:48:53.314Z,6.80
2017-11-07T22:51:21.652Z,6.80
2017-11-07T22:53:50.028Z,6.80
2017-11-07T22:56:18.400Z,6.80
2017-11-07T22:58:47.534Z,6.80
2017-11-07T23:13:52.130Z,6.80
2017-11-07T23:16:20.458Z,6.80
2017-11-07T23:18:49.487Z,6.80
2017-11-07T23:21:17.767Z,6.80
2017-11-07T23:23:46.010Z,6.80
2017-11-07T23:26:15.010Z,6.80
2017-11-07T23:28:44.043Z,6.80
2017-11-07T23:31:12.282Z,6.80
2017-11-07T23:33:40.530Z,6.80
2017-11-07T23:36:08.786Z,6.80
2017-11-07T23:38:37.024Z,6.80
2017-11-07T23:41:05.276Z,6.80
2017-11-07T23:43:34.285Z,6.80
2017-11-07T23:46:02.544Z,6.80
2017-11-07T23:48:31.544Z,6.80
2017-11-07T23:51:02.374Z,6.80
2017-11-07T23:53:31.384Z,6.80
2017-11-07T23:55:59.634Z,6.80
2017-11-07T23:58:30.493Z,6.80
